sensor_id;sensor_type;location;lat;lon;timestamp;temperature;humidity
74489;SHT31;62809;51.090;-115.358;2022-10-18T00:01:04;24.70;23.40
74489;SHT31;62809;51.090;-115.358;2022-10-18T00:03:33;24.71;23.40
74489;SHT31;62809;51.090;-115.358;2022-10-18T00:06:05;24.71;23.38
74489;SHT31;62809;51.090;-115.358;2022-10-18T00:08:36;24.71;23.37
74489;SHT31;62809;51.090;-115.358;2022-10-18T00:11:05;24.71;23.33
74489;SHT31;62809;51.090;-115.358;2022-10-18T00:13:33;24.71;23.38
74489;SHT31;62809;51.090;-115.358;2022-10-18T00:16:01;24.70;23.34
74489;SHT31;62809;51.090;-115.358;2022-10-18T00:18:38;24.69;23.36
74489;SHT31;62809;51.090;-115.358;2022-10-18T00:21:07;24.68;23.35
74489;SHT31;62809;51.090;-115.358;2022-10-18T00:23:41;24.67;23.35
74489;SHT31;62809;51.090;-115.358;2022-10-18T00:26:12;24.65;23.40
74489;SHT31;62809;51.090;-115.358;2022-10-18T00:28:49;24.64;23.40
74489;SHT31;62809;51.090;-115.358;2022-10-18T00:31:21;24.63;23.39
74489;SHT31;62809;51.090;-115.358;2022-10-18T00:33:52;24.60;23.38
74489;SHT31;62809;51.090;-115.358;2022-10-18T00:36:26;24.58;23.37
74489;SHT31;62809;51.090;-115.358;2022-10-18T00:38:59;24.57;23.38
74489;SHT31;62809;51.090;-115.358;2022-10-18T00:41:30;24.55;23.38
74489;SHT31;62809;51.090;-115.358;2022-10-18T00:46:38;24.51;23.39
74489;SHT31;62809;51.090;-115.358;2022-10-18T00:49:20;24.50;23.40
74489;SHT31;62809;51.090;-115.358;2022-10-18T00:51:56;24.48;23.41
74489;SHT31;62809;51.090;-115.358;2022-10-18T00:54:31;24.46;23.40
74489;SHT31;62809;51.090;-115.358;2022-10-18T00:57:04;24.44;23.41
74489;SHT31;62809;51.090;-115.358;2022-10-18T00:59:32;24.42;23.40
74489;SHT31;62809;51.090;-115.358;2022-10-18T01:02:00;24.41;23.41
74489;SHT31;62809;51.090;-115.358;2022-10-18T01:04:28;24.40;23.42
74489;SHT31;62809;51.090;-115.358;2022-10-18T01:12:45;24.38;23.42
74489;SHT31;62809;51.090;-115.358;2022-10-18T01:15:56;24.35;23.46
74489;SHT31;62809;51.090;-115.358;2022-10-18T01:18:36;24.33;23.49
74489;SHT31;62809;51.090;-115.358;2022-10-18T01:21:18;24.30;23.50
74489;SHT31;62809;51.090;-115.358;2022-10-18T01:23:58;24.28;23.50
74489;SHT31;62809;51.090;-115.358;2022-10-18T01:29:57;24.24;23.54
74489;SHT31;62809;51.090;-115.358;2022-10-18T01:33:01;24.22;23.56
74489;SHT31;62809;51.090;-115.358;2022-10-18T01:35:48;24.20;23.57
74489;SHT31;62809;51.090;-115.358;2022-10-18T01:38:23;24.20;23.56
74489;SHT31;62809;51.090;-115.358;2022-10-18T01:40:53;24.18;23.59
74489;SHT31;62809;51.090;-115.358;2022-10-18T01:43:23;24.17;23.60
74489;SHT31;62809;51.090;-115.358;2022-10-18T01:45:54;24.15;23.60
74489;SHT31;62809;51.090;-115.358;2022-10-18T01:48:24;24.14;23.60
74489;SHT31;62809;51.090;-115.358;2022-10-18T01:50:55;24.12;23.61
74489;SHT31;62809;51.090;-115.358;2022-10-18T01:53:30;24.11;23.66
74489;SHT31;62809;51.090;-115.358;2022-10-18T01:56:06;24.09;23.67
74489;SHT31;62809;51.090;-115.358;2022-10-18T02:11:09;23.97;23.70
74489;SHT31;62809;51.090;-115.358;2022-10-18T02:13:47;23.95;23.70
74489;SHT31;62809;51.090;-115.358;2022-10-18T02:18:59;23.92;23.70
74489;SHT31;62809;51.090;-115.358;2022-10-18T02:21:43;23.90;23.70
74489;SHT31;62809;51.090;-115.358;2022-10-18T02:24:13;23.88;23.70
74489;SHT31;62809;51.090;-115.358;2022-10-18T02:26:44;23.87;23.69
74489;SHT31;62809;51.090;-115.358;2022-10-18T02:29:11;23.84;23.66
74489;SHT31;62809;51.090;-115.358;2022-10-18T02:34:20;23.82;23.59
74489;SHT31;62809;51.090;-115.358;2022-10-18T02:42:01;23.82;23.52
74489;SHT31;62809;51.090;-115.358;2022-10-18T02:44:35;23.83;23.49
74489;SHT31;62809;51.090;-115.358;2022-10-18T02:47:04;23.83;23.48
74489;SHT31;62809;51.090;-115.358;2022-10-18T02:49:33;23.82;23.44
74489;SHT31;62809;51.090;-115.358;2022-10-18T02:52:01;23.81;23.41
74489;SHT31;62809;51.090;-115.358;2022-10-18T02:54:29;23.81;23.38
74489;SHT31;62809;51.090;-115.358;2022-10-18T02:56:58;23.81;23.31
74489;SHT31;62809;51.090;-115.358;2022-10-18T02:59:24;23.82;23.30
74489;SHT31;62809;51.090;-115.358;2022-10-18T03:01:52;23.80;23.29
74489;SHT31;62809;51.090;-115.358;2022-10-18T03:04:20;23.80;23.28
74489;SHT31;62809;51.090;-115.358;2022-10-18T03:06:49;23.78;23.25
74489;SHT31;62809;51.090;-115.358;2022-10-18T03:09:16;23.78;23.22
74489;SHT31;62809;51.090;-115.358;2022-10-18T03:11:45;23.79;23.20
74489;SHT31;62809;51.090;-115.358;2022-10-18T03:14:11;23.80;23.14
74489;SHT31;62809;51.090;-115.358;2022-10-18T03:16:38;23.78;23.14
74489;SHT31;62809;51.090;-115.358;2022-10-18T03:19:05;23.78;23.11
74489;SHT31;62809;51.090;-115.358;2022-10-18T03:21:34;23.76;23.10
74489;SHT31;62809;51.090;-115.358;2022-10-18T03:24:02;23.75;23.09
74489;SHT31;62809;51.090;-115.358;2022-10-18T03:26:31;23.72;23.07
74489;SHT31;62809;51.090;-115.358;2022-10-18T03:28:58;23.71;23.08
74489;SHT31;62809;51.090;-115.358;2022-10-18T03:31:27;23.69;23.04
74489;SHT31;62809;51.090;-115.358;2022-10-18T03:33:54;23.68;23.04
74489;SHT31;62809;51.090;-115.358;2022-10-18T03:36:21;23.66;23.00
74489;SHT31;62809;51.090;-115.358;2022-10-18T03:38:48;23.63;23.01
74489;SHT31;62809;51.090;-115.358;2022-10-18T03:41:15;23.63;22.99
74489;SHT31;62809;51.090;-115.358;2022-10-18T03:43:42;23.61;23.00
74489;SHT31;62809;51.090;-115.358;2022-10-18T03:46:11;23.58;22.98
74489;SHT31;62809;51.090;-115.358;2022-10-18T03:48:38;23.55;22.99
74489;SHT31;62809;51.090;-115.358;2022-10-18T03:51:06;23.52;22.99
74489;SHT31;62809;51.090;-115.358;2022-10-18T03:53:33;23.50;22.96
74489;SHT31;62809;51.090;-115.358;2022-10-18T03:56:00;23.49;22.99
74489;SHT31;62809;51.090;-115.358;2022-10-18T03:58:28;23.46;22.96
74489;SHT31;62809;51.090;-115.358;2022-10-18T04:00:55;23.44;22.94
74489;SHT31;62809;51.090;-115.358;2022-10-18T04:03:23;23.41;22.95
74489;SHT31;62809;51.090;-115.358;2022-10-18T04:05:51;23.40;22.93
74489;SHT31;62809;51.090;-115.358;2022-10-18T04:08:18;23.39;22.93
74489;SHT31;62809;51.090;-115.358;2022-10-18T04:10:45;23.38;22.91
74489;SHT31;62809;51.090;-115.358;2022-10-18T04:13:12;23.36;22.91
74489;SHT31;62809;51.090;-115.358;2022-10-18T04:15:43;23.33;22.91
74489;SHT31;62809;51.090;-115.358;2022-10-18T04:18:11;23.31;22.90
74489;SHT31;62809;51.090;-115.358;2022-10-18T04:20:38;23.31;22.90
74489;SHT31;62809;51.090;-115.358;2022-10-18T04:23:06;23.29;22.89
74489;SHT31;62809;51.090;-115.358;2022-10-18T04:25:33;23.29;22.89
74489;SHT31;62809;51.090;-115.358;2022-10-18T04:28:00;23.25;22.89
74489;SHT31;62809;51.090;-115.358;2022-10-18T04:30:29;23.22;22.90
74489;SHT31;62809;51.090;-115.358;2022-10-18T04:32:56;23.20;22.89
74489;SHT31;62809;51.090;-115.358;2022-10-18T04:35:25;23.19;22.89
74489;SHT31;62809;51.090;-115.358;2022-10-18T04:37:53;23.15;22.90
74489;SHT31;62809;51.090;-115.358;2022-10-18T04:40:21;23.14;22.90
74489;SHT31;62809;51.090;-115.358;2022-10-18T04:42:51;23.12;22.90
74489;SHT31;62809;51.090;-115.358;2022-10-18T04:45:20;23.11;22.90
74489;SHT31;62809;51.090;-115.358;2022-10-18T04:47:49;23.09;22.91
74489;SHT31;62809;51.090;-115.358;2022-10-18T04:50:19;23.07;22.92
74489;SHT31;62809;51.090;-115.358;2022-10-18T04:52:48;23.04;22.92
74489;SHT31;62809;51.090;-115.358;2022-10-18T04:55:18;23.03;22.90
74489;SHT31;62809;51.090;-115.358;2022-10-18T04:57:45;23.02;22.91
74489;SHT31;62809;51.090;-115.358;2022-10-18T05:00:13;23.00;22.90
74489;SHT31;62809;51.090;-115.358;2022-10-18T05:02:42;22.98;22.90
74489;SHT31;62809;51.090;-115.358;2022-10-18T05:05:09;22.97;22.91
74489;SHT31;62809;51.090;-115.358;2022-10-18T05:07:37;22.94;22.90
74489;SHT31;62809;51.090;-115.358;2022-10-18T05:10:04;22.93;22.90
74489;SHT31;62809;51.090;-115.358;2022-10-18T05:12:32;22.91;22.90
74489;SHT31;62809;51.090;-115.358;2022-10-18T05:14:59;22.89;22.91
74489;SHT31;62809;51.090;-115.358;2022-10-18T05:17:27;22.86;22.90
74489;SHT31;62809;51.090;-115.358;2022-10-18T05:19:55;22.85;22.92
74489;SHT31;62809;51.090;-115.358;2022-10-18T05:22:22;22.84;22.90
74489;SHT31;62809;51.090;-115.358;2022-10-18T05:24:50;22.82;22.90
74489;SHT31;62809;51.090;-115.358;2022-10-18T05:27:17;22.80;22.92
74489;SHT31;62809;51.090;-115.358;2022-10-18T05:29:44;22.78;22.90
74489;SHT31;62809;51.090;-115.358;2022-10-18T05:32:15;22.76;22.90
74489;SHT31;62809;51.090;-115.358;2022-10-18T05:34:44;22.74;22.91
74489;SHT31;62809;51.090;-115.358;2022-10-18T05:37:13;22.73;22.93
74489;SHT31;62809;51.090;-115.358;2022-10-18T05:39:43;22.72;22.92
74489;SHT31;62809;51.090;-115.358;2022-10-18T05:42:10;22.69;22.92
74489;SHT31;62809;51.090;-115.358;2022-10-18T05:44:38;22.67;22.92
74489;SHT31;62809;51.090;-115.358;2022-10-18T05:47:05;22.66;22.91
74489;SHT31;62809;51.090;-115.358;2022-10-18T05:49:31;22.65;22.90
74489;SHT31;62809;51.090;-115.358;2022-10-18T05:51:59;22.63;22.92
74489;SHT31;62809;51.090;-115.358;2022-10-18T05:54:26;22.62;22.89
74489;SHT31;62809;51.090;-115.358;2022-10-18T05:56:56;22.60;22.92
74489;SHT31;62809;51.090;-115.358;2022-10-18T05:59:24;22.59;22.91
74489;SHT31;62809;51.090;-115.358;2022-10-18T06:01:51;22.57;22.91
74489;SHT31;62809;51.090;-115.358;2022-10-18T06:04:18;22.57;22.90
74489;SHT31;62809;51.090;-115.358;2022-10-18T06:06:49;22.55;22.91
74489;SHT31;62809;51.090;-115.358;2022-10-18T06:09:18;22.52;22.91
74489;SHT31;62809;51.090;-115.358;2022-10-18T06:11:45;22.51;22.92
74489;SHT31;62809;51.090;-115.358;2022-10-18T06:14:12;22.49;22.90
74489;SHT31;62809;51.090;-115.358;2022-10-18T06:16:39;22.49;22.89
74489;SHT31;62809;51.090;-115.358;2022-10-18T06:19:06;22.47;22.90
74489;SHT31;62809;51.090;-115.358;2022-10-18T06:21:35;22.46;22.87
74489;SHT31;62809;51.090;-115.358;2022-10-18T06:24:02;22.43;22.90
74489;SHT31;62809;51.090;-115.358;2022-10-18T06:26:29;22.42;22.90
74489;SHT31;62809;51.090;-115.358;2022-10-18T06:28:58;22.41;22.90
74489;SHT31;62809;51.090;-115.358;2022-10-18T06:31:25;22.41;22.91
74489;SHT31;62809;51.090;-115.358;2022-10-18T06:33:54;22.38;22.88
74489;SHT31;62809;51.090;-115.358;2022-10-18T06:36:23;22.37;22.90
74489;SHT31;62809;51.090;-115.358;2022-10-18T06:38:52;22.35;22.87
74489;SHT31;62809;51.090;-115.358;2022-10-18T06:41:21;22.34;22.87
74489;SHT31;62809;51.090;-115.358;2022-10-18T06:43:49;22.34;22.84
74489;SHT31;62809;51.090;-115.358;2022-10-18T06:46:22;22.32;22.86
74489;SHT31;62809;51.090;-115.358;2022-10-18T06:48:50;22.30;22.87
74489;SHT31;62809;51.090;-115.358;2022-10-18T06:51:17;22.27;22.85
74489;SHT31;62809;51.090;-115.358;2022-10-18T06:53:46;22.26;22.82
74489;SHT31;62809;51.090;-115.358;2022-10-18T06:56:13;22.24;22.82
74489;SHT31;62809;51.090;-115.358;2022-10-18T06:58:40;22.23;22.81
74489;SHT31;62809;51.090;-115.358;2022-10-18T07:01:12;22.23;22.82
74489;SHT31;62809;51.090;-115.358;2022-10-18T07:03:56;22.21;22.80
74489;SHT31;62809;51.090;-115.358;2022-10-18T07:06:23;22.19;22.80
74489;SHT31;62809;51.090;-115.358;2022-10-18T07:08:51;22.18;22.80
74489;SHT31;62809;51.090;-115.358;2022-10-18T07:11:24;22.17;22.80
74489;SHT31;62809;51.090;-115.358;2022-10-18T07:13:52;22.15;22.80
74489;SHT31;62809;51.090;-115.358;2022-10-18T07:16:27;22.14;22.80
74489;SHT31;62809;51.090;-115.358;2022-10-18T07:18:57;22.12;22.79
74489;SHT31;62809;51.090;-115.358;2022-10-18T07:21:24;22.10;22.80
74489;SHT31;62809;51.090;-115.358;2022-10-18T07:23:54;22.08;22.78
74489;SHT31;62809;51.090;-115.358;2022-10-18T07:26:29;22.07;22.81
74489;SHT31;62809;51.090;-115.358;2022-10-18T07:29:07;22.06;22.78
74489;SHT31;62809;51.090;-115.358;2022-10-18T07:31:39;22.04;22.76
74489;SHT31;62809;51.090;-115.358;2022-10-18T07:34:09;22.03;22.78
74489;SHT31;62809;51.090;-115.358;2022-10-18T07:36:39;22.01;22.76
74489;SHT31;62809;51.090;-115.358;2022-10-18T07:39:10;21.99;22.74
74489;SHT31;62809;51.090;-115.358;2022-10-18T07:41:39;21.98;22.75
74489;SHT31;62809;51.090;-115.358;2022-10-18T07:44:06;21.95;22.75
74489;SHT31;62809;51.090;-115.358;2022-10-18T07:46:33;21.94;22.77
74489;SHT31;62809;51.090;-115.358;2022-10-18T07:49:02;21.92;22.77
74489;SHT31;62809;51.090;-115.358;2022-10-18T07:51:29;21.90;22.79
74489;SHT31;62809;51.090;-115.358;2022-10-18T07:54:00;21.89;22.77
74489;SHT31;62809;51.090;-115.358;2022-10-18T07:56:28;21.87;22.78
74489;SHT31;62809;51.090;-115.358;2022-10-18T07:58:55;21.85;22.78
74489;SHT31;62809;51.090;-115.358;2022-10-18T08:01:23;21.83;22.75
74489;SHT31;62809;51.090;-115.358;2022-10-18T08:03:51;21.82;22.80
74489;SHT31;62809;51.090;-115.358;2022-10-18T08:06:19;21.80;22.74
74489;SHT31;62809;51.090;-115.358;2022-10-18T08:08:51;21.79;22.72
74489;SHT31;62809;51.090;-115.358;2022-10-18T08:11:22;21.78;22.76
74489;SHT31;62809;51.090;-115.358;2022-10-18T08:13:51;21.75;22.77
74489;SHT31;62809;51.090;-115.358;2022-10-18T08:16:20;21.73;22.74
74489;SHT31;62809;51.090;-115.358;2022-10-18T08:18:50;21.71;22.76
74489;SHT31;62809;51.090;-115.358;2022-10-18T08:21:19;21.70;22.74
74489;SHT31;62809;51.090;-115.358;2022-10-18T08:23:47;21.68;22.74
74489;SHT31;62809;51.090;-115.358;2022-10-18T08:26:19;21.67;22.72
74489;SHT31;62809;51.090;-115.358;2022-10-18T08:28:48;21.66;22.73
74489;SHT31;62809;51.090;-115.358;2022-10-18T08:31:16;21.63;22.75
74489;SHT31;62809;51.090;-115.358;2022-10-18T08:33:44;21.62;22.73
74489;SHT31;62809;51.090;-115.358;2022-10-18T08:36:14;21.60;22.79
74489;SHT31;62809;51.090;-115.358;2022-10-18T08:38:42;21.58;22.72
74489;SHT31;62809;51.090;-115.358;2022-10-18T08:41:28;21.57;22.73
74489;SHT31;62809;51.090;-115.358;2022-10-18T08:44:20;21.55;22.72
74489;SHT31;62809;51.090;-115.358;2022-10-18T08:46:58;21.53;22.74
74489;SHT31;62809;51.090;-115.358;2022-10-18T08:49:31;21.52;22.76
74489;SHT31;62809;51.090;-115.358;2022-10-18T08:52:13;21.50;22.77
74489;SHT31;62809;51.090;-115.358;2022-10-18T08:55:02;21.49;22.78
74489;SHT31;62809;51.090;-115.358;2022-10-18T08:58:12;21.47;22.77
74489;SHT31;62809;51.090;-115.358;2022-10-18T09:00:45;21.45;22.74
74489;SHT31;62809;51.090;-115.358;2022-10-18T09:21:35;21.29;22.80
74489;SHT31;62809;51.090;-115.358;2022-10-18T09:24:21;21.27;22.80
74489;SHT31;62809;51.090;-115.358;2022-10-18T09:26:57;21.26;22.80
74489;SHT31;62809;51.090;-115.358;2022-10-18T09:35:54;21.18;22.72
74489;SHT31;62809;51.090;-115.358;2022-10-18T09:38:27;21.14;22.77
74489;SHT31;62809;51.090;-115.358;2022-10-18T09:41:11;21.13;22.74
74489;SHT31;62809;51.090;-115.358;2022-10-18T09:43:48;21.12;22.70
74489;SHT31;62809;51.090;-115.358;2022-10-18T09:46:38;21.10;22.67
74489;SHT31;62809;51.090;-115.358;2022-10-18T09:49:17;21.08;22.65
74489;SHT31;62809;51.090;-115.358;2022-10-18T09:51:56;21.07;22.70
74489;SHT31;62809;51.090;-115.358;2022-10-18T09:54:37;21.06;22.72
74489;SHT31;62809;51.090;-115.358;2022-10-18T09:57:15;21.04;22.71
74489;SHT31;62809;51.090;-115.358;2022-10-18T09:59:53;21.02;22.77
74489;SHT31;62809;51.090;-115.358;2022-10-18T10:02:22;20.99;22.79
74489;SHT31;62809;51.090;-115.358;2022-10-18T10:04:50;20.99;22.80
74489;SHT31;62809;51.090;-115.358;2022-10-18T10:07:25;20.97;22.80
74489;SHT31;62809;51.090;-115.358;2022-10-18T10:10:06;20.95;22.81
74489;SHT31;62809;51.090;-115.358;2022-10-18T10:13:05;20.93;22.87
74489;SHT31;62809;51.090;-115.358;2022-10-18T10:15:54;20.91;22.88
74489;SHT31;62809;51.090;-115.358;2022-10-18T10:18:30;20.89;22.87
74489;SHT31;62809;51.090;-115.358;2022-10-18T10:21:03;20.88;22.90
74489;SHT31;62809;51.090;-115.358;2022-10-18T10:23:53;20.85;22.73
74489;SHT31;62809;51.090;-115.358;2022-10-18T10:26:29;20.83;22.54
74489;SHT31;62809;51.090;-115.358;2022-10-18T10:29:35;20.79;22.84
74489;SHT31;62809;51.090;-115.358;2022-10-18T10:32:12;20.76;22.91
74489;SHT31;62809;51.090;-115.358;2022-10-18T10:34:45;20.75;22.89
74489;SHT31;62809;51.090;-115.358;2022-10-18T10:37:20;20.74;22.81
74489;SHT31;62809;51.090;-115.358;2022-10-18T10:45:24;20.71;22.87
74489;SHT31;62809;51.090;-115.358;2022-10-18T10:48:00;20.70;22.89
74489;SHT31;62809;51.090;-115.358;2022-10-18T10:56:21;20.61;22.97
74489;SHT31;62809;51.090;-115.358;2022-10-18T10:58:51;20.59;23.01
74489;SHT31;62809;51.090;-115.358;2022-10-18T11:01:24;20.56;23.01
74489;SHT31;62809;51.090;-115.358;2022-10-18T11:03:58;20.54;23.04
74489;SHT31;62809;51.090;-115.358;2022-10-18T11:06:51;20.52;23.09
74489;SHT31;62809;51.090;-115.358;2022-10-18T11:15:51;20.44;23.12
74489;SHT31;62809;51.090;-115.358;2022-10-18T11:18:29;20.43;22.97
74489;SHT31;62809;51.090;-115.358;2022-10-18T11:21:05;20.40;23.00
74489;SHT31;62809;51.090;-115.358;2022-10-18T11:23:41;20.37;23.02
74489;SHT31;62809;51.090;-115.358;2022-10-18T11:37:41;20.30;23.06
74489;SHT31;62809;51.090;-115.358;2022-10-18T11:43:41;20.25;23.12
74489;SHT31;62809;51.090;-115.358;2022-10-18T12:01:33;20.09;23.29
74489;SHT31;62809;51.090;-115.358;2022-10-18T12:04:17;20.07;23.33
74489;SHT31;62809;51.090;-115.358;2022-10-18T12:06:47;20.06;23.12
74489;SHT31;62809;51.090;-115.358;2022-10-18T12:09:29;20.04;22.95
74489;SHT31;62809;51.090;-115.358;2022-10-18T12:12:01;20.01;22.92
74489;SHT31;62809;51.090;-115.358;2022-10-18T12:14:45;19.97;23.19
74489;SHT31;62809;51.090;-115.358;2022-10-18T12:19:50;19.94;23.21
74489;SHT31;62809;51.090;-115.358;2022-10-18T12:22:26;19.93;23.20
74489;SHT31;62809;51.090;-115.358;2022-10-18T12:25:03;19.93;23.20
74489;SHT31;62809;51.090;-115.358;2022-10-18T12:27:42;19.92;23.20
74489;SHT31;62809;51.090;-115.358;2022-10-18T12:33:18;19.89;23.28
74489;SHT31;62809;51.090;-115.358;2022-10-18T12:38:56;19.83;23.32
74489;SHT31;62809;51.090;-115.358;2022-10-18T12:41:30;19.80;23.35
74489;SHT31;62809;51.090;-115.358;2022-10-18T12:44:21;19.78;23.39
74489;SHT31;62809;51.090;-115.358;2022-10-18T12:46:59;19.75;23.40
74489;SHT31;62809;51.090;-115.358;2022-10-18T12:58:00;19.68;22.76
74489;SHT31;62809;51.090;-115.358;2022-10-18T13:19:31;19.54;23.33
74489;SHT31;62809;51.090;-115.358;2022-10-18T13:33:46;19.30;23.42
74489;SHT31;62809;51.090;-115.358;2022-10-18T13:41:29;19.20;23.52
74489;SHT31;62809;51.090;-115.358;2022-10-18T13:44:09;19.22;23.53
74489;SHT31;62809;51.090;-115.358;2022-10-18T13:55:40;19.51;23.57
74489;SHT31;62809;51.090;-115.358;2022-10-18T13:58:43;19.58;23.74
74489;SHT31;62809;51.090;-115.358;2022-10-18T14:02:12;19.62;23.70
74489;SHT31;62809;51.090;-115.358;2022-10-18T14:05:16;19.66;23.62
74489;SHT31;62809;51.090;-115.358;2022-10-18T14:08:28;19.66;23.71
74489;SHT31;62809;51.090;-115.358;2022-10-18T14:13:55;19.69;23.73
74489;SHT31;62809;51.090;-115.358;2022-10-18T14:16:47;19.74;23.70
74489;SHT31;62809;51.090;-115.358;2022-10-18T14:19:31;19.79;23.70
74489;SHT31;62809;51.090;-115.358;2022-10-18T14:22:17;19.84;23.71
74489;SHT31;62809;51.090;-115.358;2022-10-18T14:24:54;19.88;23.65
74489;SHT31;62809;51.090;-115.358;2022-10-18T14:27:28;19.89;23.59
74489;SHT31;62809;51.090;-115.358;2022-10-18T14:32:48;19.91;23.52
74489;SHT31;62809;51.090;-115.358;2022-10-18T14:35:21;19.88;23.49
74489;SHT31;62809;51.090;-115.358;2022-10-18T14:37:55;19.84;23.43
74489;SHT31;62809;51.090;-115.358;2022-10-18T14:40:31;19.81;23.51
74489;SHT31;62809;51.090;-115.358;2022-10-18T14:43:13;19.81;23.52
74489;SHT31;62809;51.090;-115.358;2022-10-18T14:45:44;19.82;23.52
74489;SHT31;62809;51.090;-115.358;2022-10-18T14:48:15;19.87;23.50
74489;SHT31;62809;51.090;-115.358;2022-10-18T14:50:49;19.91;23.51
74489;SHT31;62809;51.090;-115.358;2022-10-18T14:53:26;19.94;23.59
74489;SHT31;62809;51.090;-115.358;2022-10-18T14:56:12;19.97;23.60
74489;SHT31;62809;51.090;-115.358;2022-10-18T14:58:57;19.97;23.62
74489;SHT31;62809;51.090;-115.358;2022-10-18T15:01:34;19.97;23.60
74489;SHT31;62809;51.090;-115.358;2022-10-18T15:04:10;19.97;23.61
74489;SHT31;62809;51.090;-115.358;2022-10-18T15:06:41;19.95;23.63
74489;SHT31;62809;51.090;-115.358;2022-10-18T15:09:10;19.95;23.75
74489;SHT31;62809;51.090;-115.358;2022-10-18T15:11:44;19.94;23.79
74489;SHT31;62809;51.090;-115.358;2022-10-18T15:14:13;19.93;23.81
74489;SHT31;62809;51.090;-115.358;2022-10-18T15:16:44;19.94;23.87
74489;SHT31;62809;51.090;-115.358;2022-10-18T15:24:39;19.95;23.96
74489;SHT31;62809;51.090;-115.358;2022-10-18T15:29:53;19.99;24.01
74489;SHT31;62809;51.090;-115.358;2022-10-18T15:34:54;20.03;24.09
74489;SHT31;62809;51.090;-115.358;2022-10-18T15:37:44;20.06;24.20
74489;SHT31;62809;51.090;-115.358;2022-10-18T15:42:53;20.09;24.17
74489;SHT31;62809;51.090;-115.358;2022-10-18T15:48:01;20.11;24.14
74489;SHT31;62809;51.090;-115.358;2022-10-18T15:50:38;20.13;24.13
74489;SHT31;62809;51.090;-115.358;2022-10-18T15:53:40;20.13;24.09
74489;SHT31;62809;51.090;-115.358;2022-10-18T15:59:20;20.15;24.01
74489;SHT31;62809;51.090;-115.358;2022-10-18T16:01:53;20.14;23.97
74489;SHT31;62809;51.090;-115.358;2022-10-18T16:06:57;20.14;23.90
74489;SHT31;62809;51.090;-115.358;2022-10-18T16:09:27;20.14;23.88
74489;SHT31;62809;51.090;-115.358;2022-10-18T16:11:54;20.13;23.91
74489;SHT31;62809;51.090;-115.358;2022-10-18T16:14:23;20.12;23.87
74489;SHT31;62809;51.090;-115.358;2022-10-18T16:16:53;20.11;23.91
74489;SHT31;62809;51.090;-115.358;2022-10-18T16:19:24;20.11;23.92
74489;SHT31;62809;51.090;-115.358;2022-10-18T16:21:56;20.13;23.96
74489;SHT31;62809;51.090;-115.358;2022-10-18T16:24:24;20.14;23.94
74489;SHT31;62809;51.090;-115.358;2022-10-18T16:26:51;20.15;23.95
74489;SHT31;62809;51.090;-115.358;2022-10-18T16:29:21;20.17;23.97
74489;SHT31;62809;51.090;-115.358;2022-10-18T16:31:50;20.19;24.00
74489;SHT31;62809;51.090;-115.358;2022-10-18T16:34:21;20.21;24.00
74489;SHT31;62809;51.090;-115.358;2022-10-18T16:36:50;20.22;24.00
74489;SHT31;62809;51.090;-115.358;2022-10-18T16:39:21;20.24;24.03
74489;SHT31;62809;51.090;-115.358;2022-10-18T16:41:49;20.24;24.10
74489;SHT31;62809;51.090;-115.358;2022-10-18T16:44:17;20.24;24.11
74489;SHT31;62809;51.090;-115.358;2022-10-18T16:46:44;20.26;24.18
74489;SHT31;62809;51.090;-115.358;2022-10-18T16:49:20;20.27;24.21
74489;SHT31;62809;51.090;-115.358;2022-10-18T16:51:50;20.28;24.20
74489;SHT31;62809;51.090;-115.358;2022-10-18T16:54:22;20.30;24.20
74489;SHT31;62809;51.090;-115.358;2022-10-18T16:56:55;20.32;24.20
74489;SHT31;62809;51.090;-115.358;2022-10-18T16:59:27;20.33;24.24
74489;SHT31;62809;51.090;-115.358;2022-10-18T17:01:56;20.35;24.21
74489;SHT31;62809;51.090;-115.358;2022-10-18T17:04:25;20.35;24.25
74489;SHT31;62809;51.090;-115.358;2022-10-18T17:06:53;20.37;24.22
74489;SHT31;62809;51.090;-115.358;2022-10-18T17:09:23;20.39;24.27
74489;SHT31;62809;51.090;-115.358;2022-10-18T17:11:50;20.40;24.29
74489;SHT31;62809;51.090;-115.358;2022-10-18T17:14:17;20.41;24.31
74489;SHT31;62809;51.090;-115.358;2022-10-18T17:16:45;20.42;24.41
74489;SHT31;62809;51.090;-115.358;2022-10-18T17:19:12;20.42;24.50
74489;SHT31;62809;51.090;-115.358;2022-10-18T17:21:40;20.43;24.41
74489;SHT31;62809;51.090;-115.358;2022-10-18T17:24:07;20.44;24.39
74489;SHT31;62809;51.090;-115.358;2022-10-18T17:26:34;20.47;24.40
74489;SHT31;62809;51.090;-115.358;2022-10-18T17:29:04;20.49;24.40
74489;SHT31;62809;51.090;-115.358;2022-10-18T17:31:33;20.51;24.40
74489;SHT31;62809;51.090;-115.358;2022-10-18T17:34:03;20.54;24.39
74489;SHT31;62809;51.090;-115.358;2022-10-18T17:36:30;20.56;24.40
74489;SHT31;62809;51.090;-115.358;2022-10-18T17:38:58;20.59;24.36
74489;SHT31;62809;51.090;-115.358;2022-10-18T17:41:26;20.61;24.34
74489;SHT31;62809;51.090;-115.358;2022-10-18T17:43:55;20.64;24.38
74489;SHT31;62809;51.090;-115.358;2022-10-18T17:46:22;20.65;24.43
74489;SHT31;62809;51.090;-115.358;2022-10-18T17:48:49;20.67;24.46
74489;SHT31;62809;51.090;-115.358;2022-10-18T17:51:19;20.68;24.40
74489;SHT31;62809;51.090;-115.358;2022-10-18T17:53:47;20.70;24.43
74489;SHT31;62809;51.090;-115.358;2022-10-18T17:56:14;20.74;24.40
74489;SHT31;62809;51.090;-115.358;2022-10-18T17:58:43;20.75;24.36
74489;SHT31;62809;51.090;-115.358;2022-10-18T18:01:19;20.80;24.29
74489;SHT31;62809;51.090;-115.358;2022-10-18T18:03:48;20.81;24.29
74489;SHT31;62809;51.090;-115.358;2022-10-18T18:06:25;20.85;24.31
74489;SHT31;62809;51.090;-115.358;2022-10-18T18:09:08;20.88;24.31
74489;SHT31;62809;51.090;-115.358;2022-10-18T18:11:39;20.91;24.38
74489;SHT31;62809;51.090;-115.358;2022-10-18T18:14:09;20.93;24.38
74489;SHT31;62809;51.090;-115.358;2022-10-18T18:16:37;20.96;24.40
74489;SHT31;62809;51.090;-115.358;2022-10-18T18:19:09;20.99;24.44
74489;SHT31;62809;51.090;-115.358;2022-10-18T18:21:38;21.02;24.44
74489;SHT31;62809;51.090;-115.358;2022-10-18T18:24:06;21.06;24.43
74489;SHT31;62809;51.090;-115.358;2022-10-18T18:26:36;21.09;24.41
74489;SHT31;62809;51.090;-115.358;2022-10-18T18:29:05;21.14;24.39
74489;SHT31;62809;51.090;-115.358;2022-10-18T18:31:32;21.18;24.34
74489;SHT31;62809;51.090;-115.358;2022-10-18T18:34:00;21.22;24.30
74489;SHT31;62809;51.090;-115.358;2022-10-18T18:36:30;21.25;24.30